createdAt,value
2022-08-22T00:02:05.259Z,57.03
2022-08-22T00:02:49.499Z,50.98
2022-08-22T00:02:49.564Z,50.87
2022-08-22T00:03:09.130Z,53.84
2022-08-22T00:03:16.084Z,55.62
2022-08-22T00:05:02.849Z,56.54
2022-08-22T00:07:47.758Z,56.99
2022-08-22T00:10:27.264Z,57.51
2022-08-22T00:13:15.748Z,58.92
2022-08-22T00:16:00.022Z,58.79
2022-08-22T00:18:48.574Z,58.22
2022-08-22T00:21:42.269Z,58.36
2022-08-22T00:24:28.691Z,58.57
2022-08-22T00:27:07.198Z,58.13
2022-08-22T00:29:41.012Z,59.56
2022-08-22T00:32:42.599Z,59.01
2022-08-22T00:35:21.547Z,58.03
2022-08-22T00:38:00.391Z,58.50
2022-08-22T00:40:55.953Z,58.14
2022-08-22T00:44:07.959Z,59.63
2022-08-22T00:46:43.088Z,59.40
2022-08-22T00:49:37.030Z,58.62
2022-08-22T00:52:17.392Z,59.27
2022-08-22T00:55:10.020Z,60.02
2022-08-22T00:58:05.596Z,59.87
2022-08-22T01:00:39.202Z,59.83
2022-08-22T01:03:24.617Z,60.15
2022-08-22T01:06:11.452Z,61.27
2022-08-22T01:09:09.597Z,60.73
2022-08-22T01:12:11.851Z,61.04
2022-08-22T01:14:41.095Z,60.74
2022-08-22T01:17:38.597Z,60.92
2022-08-22T01:20:14.976Z,61.44
2022-08-22T01:23:02.461Z,61.85
2022-08-22T01:26:09.894Z,60.74
2022-08-22T01:29:12.043Z,60.77
2022-08-22T01:32:10.071Z,61.08
2022-08-22T01:35:02.082Z,62.41
2022-08-22T01:37:43.425Z,62.75
2022-08-22T01:40:34.670Z,62.08
2022-08-22T01:43:07.335Z,62.05
2022-08-22T01:46:05.287Z,63.13
2022-08-22T01:48:43.976Z,62.57
2022-08-22T01:51:17.171Z,62.83
2022-08-22T01:54:05.364Z,62.29
2022-08-22T01:56:38.410Z,61.79
2022-08-22T01:59:10.979Z,61.35
2022-08-22T02:02:04.443Z,60.85
2022-08-22T02:04:41.958Z,60.99
2022-08-22T02:07:14.219Z,61.19
2022-08-22T02:10:01.807Z,61.30
2022-08-22T02:13:06.191Z,61.53
2022-08-22T02:15:44.006Z,62.79
2022-08-22T02:18:26.751Z,62.23
2022-08-22T02:21:09.937Z,63.07
2022-08-22T02:24:00.382Z,62.00
2022-08-22T02:26:53.066Z,63.29
2022-08-22T02:29:35.546Z,62.46
2022-08-22T02:32:15.323Z,63.15
2022-08-22T02:34:58.685Z,62.83
2022-08-22T02:37:55.127Z,63.45
2022-08-22T02:40:55.656Z,65.07
2022-08-22T02:43:34.614Z,64.69
2022-08-22T02:46:22.068Z,62.63
2022-08-22T02:48:59.876Z,63.77
2022-08-22T02:51:53.903Z,63.82
2022-08-22T02:54:27.842Z,63.36
2022-08-22T02:57:06.324Z,62.62
2022-08-22T03:00:31.659Z,62.48
2022-08-22T03:03:03.612Z,62.79
2022-08-22T03:05:40.872Z,62.95
2022-08-22T03:08:22.348Z,63.97
2022-08-22T03:11:01.123Z,62.15
2022-08-22T03:13:39.848Z,63.72
2022-08-22T03:16:15.046Z,63.95
2022-08-22T03:18:53.557Z,64.02
2022-08-22T03:21:28.874Z,63.63
2022-08-22T03:24:19.942Z,63.38
2022-08-22T03:26:55.665Z,62.71
2022-08-22T03:29:32.959Z,66.46
2022-08-22T03:32:13.004Z,64.17
2022-08-22T03:34:55.755Z,65.31
2022-08-22T03:37:31.572Z,65.23
2022-08-22T03:40:31.718Z,65.93
2022-08-22T03:43:33.331Z,65.51
2022-08-22T03:46:12.127Z,64.62
2022-08-22T03:48:53.749Z,65.53
2022-08-22T03:51:42.715Z,65.15
2022-08-22T03:54:19.303Z,64.18
2022-08-22T03:57:04.393Z,64.50
2022-08-22T04:00:02.832Z,64.64
2022-08-22T04:02:51.338Z,64.82
2022-08-22T04:05:48.227Z,65.21
2022-08-22T04:08:43.919Z,65.40
2022-08-22T04:11:42.767Z,65.23
2022-08-22T04:14:47.320Z,66.56
2022-08-22T04:17:31.240Z,67.27
2022-08-22T04:20:37.781Z,65.64
2022-08-22T04:23:34.673Z,64.96
2022-08-22T04:26:17.888Z,64.55
2022-08-22T04:29:03.192Z,65.05
2022-08-22T04:31:36.643Z,63.05
2022-08-22T04:34:05.672Z,63.08
2022-08-22T04:36:43.216Z,63.26
2022-08-22T04:39:30.032Z,64.25
2022-08-22T04:42:30.711Z,64.71
2022-08-22T04:44:57.288Z,65.53
2022-08-22T04:47:29.896Z,64.09
2022-08-22T04:50:05.969Z,65.72
2022-08-22T04:52:51.919Z,65.27
2022-08-22T04:55:32.414Z,65.58
2022-08-22T04:58:01.841Z,64.91
2022-08-22T05:00:41.717Z,65.00
2022-08-22T05:03:12.447Z,64.68
2022-08-22T05:05:43.389Z,65.18
2022-08-22T05:08:17.861Z,64.10
2022-08-22T05:10:49.101Z,64.47
2022-08-22T05:13:22.764Z,64.74
2022-08-22T05:15:53.983Z,64.20
2022-08-22T05:18:29.641Z,64.58
2022-08-22T05:21:01.683Z,65.10
2022-08-22T05:23:39.269Z,63.94
2022-08-22T05:26:07.464Z,64.68
2022-08-22T05:28:52.922Z,64.88
2022-08-22T05:31:51.432Z,65.34
2022-08-22T05:34:25.935Z,67.47
2022-08-22T05:37:04.834Z,67.13
2022-08-22T05:39:37.762Z,67.93
2022-08-22T05:42:11.543Z,68.74
2022-08-22T05:44:38.475Z,68.39
2022-08-22T05:47:24.204Z,69.09
2022-08-22T05:50:01.307Z,68.85
2022-08-22T05:52:42.118Z,68.00
2022-08-22T05:55:23.432Z,67.88
2022-08-22T05:58:02.404Z,67.60
2022-08-22T06:00:36.055Z,68.38
2022-08-22T06:03:39.110Z,68.10
2022-08-22T06:06:14.748Z,66.52
2022-08-22T06:08:46.645Z,65.92
2022-08-22T06:11:24.760Z,64.99
2022-08-22T06:13:58.000Z,64.15
2022-08-22T06:16:37.358Z,64.65
2022-08-22T06:19:04.922Z,65.09
2022-08-22T06:21:49.606Z,65.21
2022-08-22T06:24:21.207Z,65.44
2022-08-22T06:26:51.896Z,65.64
2022-08-22T06:29:36.080Z,64.37
2022-08-22T06:32:10.844Z,63.50
2022-08-22T06:34:41.003Z,61.06
2022-08-22T06:37:11.600Z,63.88
2022-08-22T06:39:45.285Z,62.76
2022-08-22T06:42:19.789Z,62.40
2022-08-22T06:44:59.176Z,62.45
2022-08-22T06:47:38.929Z,61.22
2022-08-22T06:50:23.050Z,62.87
2022-08-22T06:53:08.012Z,62.14
2022-08-22T06:55:36.720Z,61.44
2022-08-22T06:58:06.927Z,60.25
2022-08-22T07:00:35.271Z,61.36
2022-08-22T07:03:10.440Z,59.90
2022-08-22T07:05:40.235Z,59.65
2022-08-22T07:08:13.185Z,56.81
2022-08-22T07:10:45.522Z,54.62
2022-08-22T07:13:16.744Z,57.10
2022-08-22T07:15:43.368Z,58.42
2022-08-22T07:18:19.441Z,58.51
2022-08-22T07:20:53.123Z,57.49
2022-08-22T07:23:39.494Z,56.41
2022-08-22T07:26:25.905Z,56.58
2022-08-22T07:29:16.640Z,55.53
2022-08-22T07:32:06.852Z,55.50
2022-08-22T07:35:17.675Z,56.88
2022-08-22T07:37:53.235Z,57.49
2022-08-22T07:40:32.991Z,57.05
2022-08-22T07:43:08.841Z,57.60
2022-08-22T07:45:47.520Z,53.69
2022-08-22T07:48:25.904Z,55.25
2022-08-22T07:51:01.435Z,54.47
2022-08-22T07:53:49.128Z,52.80
2022-08-22T07:56:22.769Z,52.20
2022-08-22T07:58:59.485Z,51.79
2022-08-22T08:01:26.971Z,51.00
2022-08-22T08:04:01.984Z,50.34
2022-08-22T08:06:29.307Z,52.87
2022-08-22T08:08:56.805Z,49.91
2022-08-22T08:11:26.716Z,51.07
2022-08-22T08:14:05.455Z,49.08
2022-08-22T08:16:41.978Z,51.32
2022-08-22T08:19:09.940Z,45.64
2022-08-22T08:21:40.978Z,46.60
2022-08-22T08:24:11.985Z,49.70
2022-08-22T08:26:43.459Z,49.04
2022-08-22T08:29:09.844Z,47.70
2022-08-22T08:31:43.183Z,46.31
2022-08-22T08:34:19.146Z,46.06
2022-08-22T08:37:05.231Z,46.30
2022-08-22T08:39:35.994Z,46.73
2022-08-22T08:42:33.251Z,46.15
2022-08-22T08:45:18.276Z,46.45
2022-08-22T08:48:18.063Z,46.10
2022-08-22T08:51:06.905Z,45.07
2022-08-22T08:54:20.112Z,45.69
2022-08-22T08:57:03.530Z,44.54
2022-08-22T09:00:00.616Z,45.02
2022-08-22T09:02:52.668Z,45.64
2022-08-22T09:05:50.056Z,47.76
2022-08-22T09:08:45.040Z,44.32
2022-08-22T09:11:14.441Z,44.59
2022-08-22T09:14:08.315Z,43.73
2022-08-22T09:16:56.615Z,43.43
2022-08-22T09:19:55.273Z,41.29
2022-08-22T09:22:52.802Z,41.39
2022-08-22T09:25:36.968Z,40.38
2022-08-22T09:28:16.353Z,40.44
2022-08-22T09:30:59.496Z,38.30
2022-08-22T09:33:38.247Z,38.27
2022-08-22T09:36:31.032Z,39.38
2022-08-22T09:38:58.245Z,39.03
2022-08-22T09:41:42.892Z,38.84
2022-08-22T09:44:30.920Z,40.24
2022-08-22T09:47:24.603Z,39.86
2022-08-22T09:50:13.441Z,39.85
2022-08-22T09:53:05.182Z,38.60
2022-08-22T09:55:57.412Z,39.84
2022-08-22T09:58:50.485Z,39.11
2022-08-22T10:01:59.798Z,39.21
2022-08-22T10:04:42.160Z,38.60
2022-08-22T10:07:31.316Z,39.02
2022-08-22T10:10:26.153Z,37.93
2022-08-22T10:13:47.345Z,38.61
2022-08-22T10:17:11.522Z,38.20
2022-08-22T10:19:47.066Z,38.00
2022-08-22T10:22:20.740Z,37.67
2022-08-22T10:24:47.180Z,37.85
2022-08-22T10:27:19.498Z,36.92
2022-08-22T10:30:04.114Z,37.11
2022-08-22T10:32:39.674Z,36.04
2022-08-22T10:35:37.149Z,35.68
2022-08-22T10:38:46.947Z,35.35
2022-08-22T10:41:34.882Z,35.78
2022-08-22T10:44:29.141Z,36.38
2022-08-22T10:47:06.496Z,36.53
2022-08-22T10:49:51.096Z,37.43
2022-08-22T10:52:31.079Z,36.14
2022-08-22T10:55:15.062Z,35.92
2022-08-22T10:57:56.637Z,35.53
2022-08-22T11:00:46.208Z,36.19
2022-08-22T11:03:25.292Z,36.24
2022-08-22T11:06:00.050Z,34.94
2022-08-22T11:08:45.253Z,35.12
2022-08-22T11:11:39.573Z,35.03
2022-08-22T11:14:39.640Z,35.44
2022-08-22T11:17:30.879Z,33.89
2022-08-22T11:20:14.441Z,34.68
2022-08-22T11:23:03.127Z,34.23
2022-08-22T11:25:53.882Z,33.79
2022-08-22T11:28:37.301Z,33.85
2022-08-22T11:31:36.450Z,33.19
2022-08-22T11:34:13.367Z,32.55
2022-08-22T11:36:50.463Z,32.50
2022-08-22T11:39:41.317Z,31.18
2022-08-22T11:42:30.821Z,31.84
2022-08-22T11:45:01.625Z,32.66
2022-08-22T11:47:34.616Z,33.37
2022-08-22T11:50:31.513Z,32.23
2022-08-22T11:53:14.337Z,32.79
2022-08-22T11:55:58.532Z,30.82
2022-08-22T11:58:49.726Z,29.58
2022-08-22T12:01:23.134Z,30.42
2022-08-22T12:04:13.322Z,29.36
2022-08-22T12:07:01.490Z,29.04
2022-08-22T12:09:40.974Z,30.21
2022-08-22T12:12:33.744Z,29.93
2022-08-22T12:15:24.472Z,29.64
2022-08-22T12:18:20.126Z,29.06
2022-08-22T12:21:43.886Z,31.58
2022-08-22T12:24:22.176Z,32.76
2022-08-22T12:27:09.725Z,30.84
2022-08-22T12:30:03.173Z,28.76
2022-08-22T12:32:55.756Z,27.92
2022-08-22T12:35:30.018Z,29.44
2022-08-22T12:38:01.704Z,28.35
2022-08-22T12:40:39.786Z,29.85
2022-08-22T12:43:32.263Z,28.43
2022-08-22T12:46:15.899Z,27.94
2022-08-22T12:49:01.375Z,29.70
2022-08-22T12:51:56.835Z,30.29
2022-08-22T12:54:46.283Z,30.33
2022-08-22T12:57:27.216Z,30.81
2022-08-22T12:59:58.207Z,30.74
2022-08-22T13:02:29.792Z,30.36
2022-08-22T13:05:08.412Z,28.64
2022-08-22T13:07:37.330Z,30.71
2022-08-22T13:10:40.623Z,30.16
2022-08-22T13:13:12.562Z,30.18
2022-08-22T13:15:54.052Z,29.69
2022-08-22T13:18:29.950Z,28.49
2022-08-22T13:21:00.949Z,29.90
2022-08-22T13:23:41.992Z,30.20
2022-08-22T13:26:34.000Z,30.33
2022-08-22T13:29:26.797Z,29.86
2022-08-22T13:31:59.266Z,29.56
2022-08-22T13:34:39.499Z,29.90
2022-08-22T13:37:11.966Z,29.24
2022-08-22T13:39:42.875Z,29.45
2022-08-22T13:42:20.428Z,28.41
2022-08-22T13:44:59.738Z,28.59
2022-08-22T13:47:31.611Z,27.43
2022-08-22T13:50:20.366Z,29.06
2022-08-22T13:53:10.946Z,29.17
2022-08-22T13:55:49.335Z,27.53
2022-08-22T13:58:39.020Z,28.58
2022-08-22T14:01:38.046Z,28.21
2022-08-22T14:04:28.861Z,28.67
2022-08-22T14:07:02.335Z,28.52
2022-08-22T14:09:40.934Z,28.43
2022-08-22T14:12:13.855Z,27.48
2022-08-22T14:14:46.105Z,27.79
2022-08-22T14:17:19.826Z,27.04
2022-08-22T14:19:58.871Z,26.76
2022-08-22T14:22:31.680Z,26.80
2022-08-22T14:25:02.288Z,26.22
2022-08-22T14:27:54.949Z,26.60
2022-08-22T14:30:26.131Z,26.31
2022-08-22T14:32:58.725Z,26.58
2022-08-22T14:35:40.839Z,26.23
2022-08-22T14:38:17.350Z,26.60
2022-08-22T14:40:45.293Z,25.87
2022-08-22T14:43:33.252Z,26.12
2022-08-22T14:46:06.468Z,26.93
2022-08-22T14:48:45.557Z,25.96
2022-08-22T14:51:23.324Z,26.66
2022-08-22T14:53:50.166Z,26.48
2022-08-22T14:56:23.845Z,26.78
2022-08-22T14:58:56.396Z,26.80
2022-08-22T15:01:25.895Z,26.31
2022-08-22T15:04:06.281Z,26.84
2022-08-22T15:06:48.155Z,26.90
2022-08-22T15:09:35.854Z,26.56
2022-08-22T15:12:07.972Z,26.92
2022-08-22T15:14:36.762Z,26.39
2022-08-22T15:17:09.354Z,26.43
2022-08-22T15:19:45.704Z,26.59
2022-08-22T15:22:21.867Z,26.54
2022-08-22T15:25:14.054Z,26.87
2022-08-22T15:27:49.340Z,27.15
2022-08-22T15:30:20.645Z,26.73
2022-08-22T15:32:48.440Z,26.12
2022-08-22T15:35:29.971Z,26.99
2022-08-22T15:38:04.775Z,26.36
2022-08-22T15:40:40.536Z,25.98
2022-08-22T15:43:25.656Z,27.36
2022-08-22T15:46:17.957Z,27.66
2022-08-22T15:48:56.552Z,27.42
2022-08-22T15:51:45.863Z,27.32
2022-08-22T15:54:24.830Z,27.76
2022-08-22T15:56:51.828Z,27.11
2022-08-22T15:59:47.870Z,27.64
2022-08-22T16:02:27.175Z,26.97
2022-08-22T16:05:25.889Z,27.40
2022-08-22T16:07:57.940Z,27.08
2022-08-22T16:10:24.167Z,27.36
2022-08-22T16:13:14.301Z,27.39
2022-08-22T16:15:52.857Z,27.45
2022-08-22T16:18:34.440Z,27.88
2022-08-22T16:21:12.647Z,27.15
2022-08-22T16:23:51.074Z,27.46
2022-08-22T16:26:24.477Z,27.27
2022-08-22T16:29:03.087Z,27.23
2022-08-22T16:31:57.355Z,27.34
2022-08-22T16:34:38.023Z,27.92
2022-08-22T16:37:13.408Z,27.15
2022-08-22T16:39:43.267Z,27.80
2022-08-22T16:42:12.385Z,27.79
2022-08-22T16:44:48.943Z,27.31
2022-08-22T16:47:38.593Z,27.44
2022-08-22T16:50:17.074Z,27.86
2022-08-22T16:53:04.487Z,27.58
2022-08-22T16:55:30.748Z,27.43
2022-08-22T16:58:07.012Z,27.36
2022-08-22T17:00:36.254Z,27.43
2022-08-22T17:03:10.206Z,27.61
2022-08-22T17:06:03.813Z,27.22
2022-08-22T17:08:39.119Z,27.56
2022-08-22T17:11:20.462Z,27.21
2022-08-22T17:14:08.387Z,27.17
2022-08-22T17:16:48.747Z,27.21
2022-08-22T17:19:57.376Z,27.34
2022-08-22T17:22:43.805Z,27.79
2022-08-22T17:25:34.203Z,27.77
2022-08-22T17:28:13.067Z,28.11
2022-08-22T17:31:21.675Z,28.25
2022-08-22T17:34:02.109Z,28.24
2022-08-22T17:36:37.821Z,28.29
2022-08-22T17:39:18.664Z,28.42
2022-08-22T17:42:10.772Z,28.95
2022-08-22T17:44:59.900Z,28.97
2022-08-22T17:47:43.559Z,29.24
2022-08-22T17:50:16.016Z,29.34
2022-08-22T17:52:53.148Z,30.13
2022-08-22T17:55:25.747Z,29.73
2022-08-22T17:57:59.981Z,30.25
2022-08-22T18:00:41.221Z,30.88
2022-08-22T18:03:21.489Z,30.82
2022-08-22T18:06:10.063Z,31.38
2022-08-22T18:11:58.190Z,30.96
2022-08-22T18:14:35.341Z,30.88
2022-08-22T18:17:15.067Z,31.66
2022-08-22T18:19:55.846Z,31.39
2022-08-22T18:22:29.657Z,32.00
2022-08-22T18:25:03.266Z,31.28
2022-08-22T18:27:39.611Z,31.40
2022-08-22T18:30:17.082Z,32.33
2022-08-22T18:33:08.986Z,32.52
2022-08-22T18:35:59.819Z,33.88
2022-08-22T18:38:52.476Z,33.27
2022-08-22T18:41:18.750Z,33.33
2022-08-22T18:43:47.432Z,33.62
2022-08-22T18:46:31.309Z,33.85
2022-08-22T18:49:15.073Z,33.41
2022-08-22T18:51:43.000Z,33.42
2022-08-22T18:54:09.258Z,33.93
2022-08-22T18:56:49.883Z,34.10
2022-08-22T18:59:34.458Z,34.07
2022-08-22T19:02:25.449Z,34.70
2022-08-22T19:05:17.867Z,35.96
2022-08-22T19:07:59.140Z,34.76
2022-08-22T19:10:33.085Z,35.60
2022-08-22T19:13:08.999Z,36.58
2022-08-22T19:16:01.574Z,35.69
2022-08-22T19:18:40.035Z,35.94
2022-08-22T19:21:22.000Z,35.82
2022-08-22T19:23:49.625Z,36.73
2022-08-22T19:26:30.315Z,36.45
2022-08-22T19:29:01.563Z,36.44
2022-08-22T19:31:36.944Z,36.73
2022-08-22T19:34:35.920Z,36.28
2022-08-22T19:37:11.481Z,36.87
2022-08-22T19:40:11.103Z,37.03
2022-08-22T19:42:40.241Z,37.82
2022-08-22T19:45:24.904Z,37.56
2022-08-22T19:48:09.436Z,37.93
2022-08-22T19:50:38.415Z,38.09
2022-08-22T19:53:25.075Z,38.38
2022-08-22T19:56:00.321Z,38.01
2022-08-22T19:58:43.829Z,38.89
2022-08-22T20:01:35.992Z,39.10
2022-08-22T20:04:19.305Z,38.99
2022-08-22T20:06:59.931Z,39.18
2022-08-22T20:09:43.475Z,39.54
2022-08-22T20:12:14.639Z,39.80
2022-08-22T20:14:44.235Z,39.34
2022-08-22T20:17:25.668Z,39.43
2022-08-22T20:22:52.675Z,38.99
2022-08-22T20:25:42.807Z,38.82
2022-08-22T20:28:44.917Z,39.44
2022-08-22T20:31:20.690Z,40.38
2022-08-22T20:33:53.309Z,39.91
2022-08-22T20:36:28.490Z,40.11
2022-08-22T20:39:00.507Z,40.25
2022-08-22T20:41:33.323Z,39.75
2022-08-22T20:44:11.219Z,39.38
2022-08-22T20:46:46.354Z,40.21
2022-08-22T20:49:19.614Z,40.43
2022-08-22T20:51:53.816Z,40.71
2022-08-22T20:54:24.132Z,40.42
2022-08-22T20:56:59.842Z,40.59
2022-08-22T20:59:34.768Z,40.59
2022-08-22T21:02:10.228Z,41.05
2022-08-22T21:05:11.803Z,40.49
2022-08-22T21:07:41.856Z,40.47
2022-08-22T21:10:24.546Z,41.57
2022-08-22T21:13:01.585Z,41.66
2022-08-22T21:15:42.940Z,42.04
2022-08-22T21:18:13.316Z,42.14
2022-08-22T21:20:40.072Z,42.56
2022-08-22T21:23:14.179Z,42.34
2022-08-22T21:26:02.088Z,43.27
2022-08-22T21:28:31.071Z,42.14
2022-08-22T21:30:58.693Z,43.48
2022-08-22T21:33:25.522Z,43.20
2022-08-22T21:35:57.769Z,43.62
2022-08-22T21:38:24.752Z,44.27
2022-08-22T21:40:51.564Z,43.49
2022-08-22T21:43:37.233Z,44.16
2022-08-22T21:46:05.385Z,43.67
2022-08-22T21:48:41.070Z,43.64
2022-08-22T21:51:40.944Z,44.54
2022-08-22T21:54:25.429Z,44.38
2022-08-22T21:56:54.087Z,43.46
2022-08-22T21:59:26.229Z,44.20
2022-08-22T22:02:36.315Z,44.08
2022-08-22T22:05:13.476Z,43.29
2022-08-22T22:07:42.620Z,43.93
2022-08-22T22:10:12.334Z,43.71
2022-08-22T22:12:41.198Z,43.14
2022-08-22T22:15:09.397Z,43.93
2022-08-22T22:17:35.793Z,43.52
2022-08-22T22:20:02.452Z,44.23
2022-08-22T22:22:28.752Z,44.38
2022-08-22T22:24:55.080Z,45.11
2022-08-22T22:27:21.440Z,44.83
2022-08-22T22:29:47.801Z,44.85
2022-08-22T22:32:14.179Z,45.27
2022-08-22T22:34:40.702Z,44.47
2022-08-22T22:37:08.872Z,45.26
2022-08-22T22:39:36.483Z,44.85
2022-08-22T22:42:03.583Z,45.52
2022-08-22T22:44:29.897Z,45.80
2022-08-22T22:47:01.042Z,45.91
2022-08-22T22:49:28.072Z,45.72
2022-08-22T22:51:54.654Z,46.56
2022-08-22T22:54:27.262Z,45.73
2022-08-22T22:56:53.956Z,45.61
2022-08-22T22:59:24.788Z,46.70
2022-08-22T23:02:08.235Z,45.60
2022-08-22T23:04:36.943Z,46.46
2022-08-22T23:07:04.959Z,46.34
2022-08-22T23:09:38.682Z,45.83
2022-08-22T23:12:11.794Z,44.55
2022-08-22T23:14:38.126Z,45.09
2022-08-22T23:17:05.132Z,45.04
2022-08-22T23:19:31.540Z,45.63
2022-08-22T23:21:59.614Z,45.13
2022-08-22T23:24:29.115Z,45.67
2022-08-22T23:26:55.695Z,45.74
2022-08-22T23:29:22.051Z,46.08
2022-08-22T23:32:00.609Z,46.13
2022-08-22T23:34:33.924Z,46.25
2022-08-22T23:37:00.895Z,45.98
2022-08-22T23:39:29.994Z,46.39
2022-08-22T23:41:57.597Z,47.00
2022-08-22T23:44:27.178Z,47.03
2022-08-22T23:46:54.068Z,46.59
2022-08-22T23:49:20.604Z,45.40
2022-08-22T23:51:48.359Z,45.25
2022-08-22T23:54:16.476Z,45.68
2022-08-22T23:56:51.924Z,46.39
2022-08-22T23:59:38.295Z,46.57
